Freeborn, Minnesota
Current Conditions -  °F | °C
As of 12:54 PM on Tuesday 27 Jan 2015 (Local Time) from KAEL Reporting Station
Overcast Overcast  
Wind Chill: 31°   Ceiling: 1600
Heat Index: 36°   Visibility: 10mi
Dew Point: 28°   Wind: 6mph
Humidity: 75%   Direction: 140°SE
Pressure: 30.14"   Gusts: NA
Location:  43.77°N, 93.56°W
Report Text: KAEL 271854Z AUTO 14005KT 10SM OVC016 02/M02 A3014 RMK AO2
Loading
Personal Weather Stations






























Interactive Weather Map New forecast layout! Learn more

10-Day Weather Forecast

Advertisements
Track Severe Weather on mobile